Time;durP1;ratioP1;P1;durP2;ratioP2;P2;SDS_P1;SDS_P2;PMS_P1;PMS_P2;Temp;Humidity;BMP_temperature;BMP_pressure;BME280_temperature;BME280_humidity;BME280_pressure;Samples;Min_cycle;Max_cycle;Signal;HPM_P1;HPM_P2
2023/09/06 00:01:08;;;;;;;5.37;3.20;;;;;;;20.40;49.49;151156.22;4988871;28;20228;-55
2023/09/06 00:03:36;;;;;;;6.63;3.10;;;;;;;20.25;50.55;151119.88;4991874;28;20237;-55
2023/09/06 00:06:03;;;;;;;6.97;2.77;;;;;;;19.97;51.75;151052.25;4982631;28;20231;-57
2023/09/06 00:08:34;;;;;;;4.40;3.30;;;;;;;19.80;50.97;151012.13;4990319;28;20224;-57
2023/09/06 00:11:04;;;;;;;5.17;3.33;;;;;;;19.88;52.43;151030.91;4985409;28;20235;-56
2023/09/06 00:13:32;;;;;;;3.63;2.57;;;;;;;19.74;54.21;150998.31;4987920;28;20835;-57
2023/09/06 00:16:00;;;;;;;6.80;3.23;;;;;;;19.85;53.80;151024.66;4986049;28;20326;-55
2023/09/06 00:18:27;;;;;;;6.27;3.00;;;;;;;19.50;54.63;150939.47;4989722;28;20227;-57
2023/09/06 00:20:54;;;;;;;6.27;3.00;;;;;;;19.29;55.54;150888.16;4980304;28;20229;-57
2023/09/06 00:23:21;;;;;;;4.33;3.03;;;;;;;19.11;55.87;150844.31;4987191;28;20731;-56
2023/09/06 00:25:48;;;;;;;6.93;3.30;;;;;;;18.91;59.59;150795.47;4990069;28;20227;-55
2023/09/06 00:28:14;;;;;;;4.73;2.87;;;;;;;18.73;59.47;150754.16;4981707;28;20239;-57
2023/09/06 00:30:44;;;;;;;4.83;2.80;;;;;;;18.57;59.29;150714.13;4983841;28;20223;-55
2023/09/06 00:33:13;;;;;;;4.30;3.10;;;;;;;18.44;58.43;150684.06;4977296;28;20221;-57
2023/09/06 00:35:40;;;;;;;3.73;2.97;;;;;;;18.15;60.03;150612.75;4979705;28;20232;-57
2023/09/06 00:38:07;;;;;;;6.37;3.03;;;;;;;17.96;60.78;150567.66;4992199;28;20593;-57
2023/09/06 00:40:36;;;;;;;7.17;3.47;;;;;;;17.79;61.96;150525.13;4987628;28;20317;-57
2023/09/06 00:43:04;;;;;;;4.50;2.80;;;;;;;17.67;62.52;150496.38;4975923;28;20322;-57
2023/09/06 00:45:37;;;;;;;5.20;2.87;;;;;;;17.48;62.63;150450.09;5006527;28;20224;-54
2023/09/06 00:48:05;;;;;;;7.33;2.90;;;;;;;17.36;63.50;150421.31;4985631;28;20239;-56
2023/09/06 00:50:34;;;;;;;5.33;2.83;;;;;;;17.22;63.71;150388.78;4990337;28;20736;-57
2023/09/06 00:53:02;;;;;;;4.20;2.77;;;;;;;17.04;64.79;150345.03;5001184;28;20587;-57
2023/09/06 00:55:29;;;;;;;5.43;3.53;;;;;;;16.95;65.34;150323.75;4989958;28;20238;-54
2023/09/06 00:57:56;;;;;;;4.57;2.70;;;;;;;16.84;64.78;150296.25;4973231;28;20231;-56
2023/09/06 01:03:05;;;;;;;6.03;3.10;;;;;;;16.61;66.66;150241.22;5337305;22;20244;-52
2023/09/06 01:05:41;;;;;;;6.07;2.70;;;;;;;16.48;67.12;150208.72;4986115;28;20315;-52
2023/09/06 01:08:11;;;;;;;3.80;3.00;;;;;;;16.35;67.06;150177.50;5001444;28;20614;-54
2023/09/06 01:10:38;;;;;;;3.70;2.57;;;;;;;16.31;65.09;150168.72;4987818;28;20224;-56
2023/09/06 01:13:05;;;;;;;3.83;2.50;;;;;;;16.16;66.25;150131.22;4984741;28;20726;-56
2023/09/06 01:15:32;;;;;;;6.70;2.63;;;;;;;16.11;67.58;150120.00;4987757;28;20230;-55
2023/09/06 01:18:02;;;;;;;6.17;3.00;;;;;;;16.04;67.77;150102.50;4984504;28;20281;-54
2023/09/06 01:20:39;;;;;;;8.00;3.20;;;;;;;16.00;69.24;150093.72;4987066;28;20219;-55
2023/09/06 01:23:16;;;;;;;4.73;2.53;;;;;;;15.96;68.90;150082.50;4984221;28;20296;-54
2023/09/06 01:25:45;;;;;;;3.40;2.80;;;;;;;15.94;70.26;150080.00;5001881;28;20250;-53
2023/09/06 01:28:12;;;;;;;4.60;2.90;;;;;;;15.89;70.07;150067.50;4995269;28;20230;-51
2023/09/06 01:30:39;;;;;;;3.17;2.40;;;;;;;15.92;70.29;150073.72;4992265;28;20239;-53
2023/09/06 01:33:05;;;;;;;5.17;2.90;;;;;;;15.89;68.76;150067.50;5003087;28;20331;-53
2023/09/06 01:35:32;;;;;;;4.23;2.60;;;;;;;15.87;67.95;150061.28;4989267;28;20229;-52
2023/09/06 01:37:59;;;;;;;6.60;2.73;;;;;;;15.77;67.60;150037.47;4985037;28;21243;-54
2023/09/06 01:40:27;;;;;;;4.50;2.60;;;;;;;15.69;69.34;150018.75;4991985;28;20230;-54
2023/09/06 01:42:55;;;;;;;8.83;2.70;;;;;;;15.61;70.21;149998.75;5002122;28;20237;-56
2023/09/06 01:45:22;;;;;;;7.90;3.07;;;;;;;15.53;67.69;149978.75;5004580;28;20277;-55
2023/09/06 01:47:49;;;;;;;7.27;2.73;;;;;;;15.43;70.16;149954.97;5001147;28;20250;-53
2023/09/06 01:50:19;;;;;;;5.77;2.70;;;;;;;15.37;68.97;149941.28;4985391;28;20225;-53
2023/09/06 01:52:46;;;;;;;3.63;2.30;;;;;;;15.41;66.90;149951.25;4982259;28;20221;-53
2023/09/06 01:55:13;;;;;;;3.47;2.10;;;;;;;15.53;66.22;149979.97;4993770;28;20619;-53
2023/09/06 01:57:39;;;;;;;4.63;2.50;;;;;;;15.42;68.54;149952.50;4983991;28;20305;-53
2023/09/06 02:00:23;;;;;;;4.27;2.80;;;;;;;15.48;70.39;149967.47;4988109;28;20830;-53
2023/09/06 02:02:50;;;;;;;5.13;2.37;;;;;;;15.52;69.00;149976.25;5000774;28;20229;-54
2023/09/06 02:05:17;;;;;;;6.63;2.80;;;;;;;15.37;68.68;149940.03;5001086;28;20241;-54
2023/09/06 02:07:45;;;;;;;5.23;2.30;;;;;;;15.26;69.05;149913.78;5001161;28;20217;-54
2023/09/06 02:10:11;;;;;;;3.03;2.30;;;;;;;15.23;69.59;149906.28;5002769;28;20238;-55
2023/09/06 02:12:38;;;;;;;3.53;2.47;;;;;;;15.09;67.02;149872.59;4977359;28;20239;-55
2023/09/06 02:15:14;;;;;;;3.27;2.30;;;;;;;15.03;68.21;149858.81;5001133;28;20229;-54
2023/09/06 02:17:43;;;;;;;3.83;2.43;;;;;;;14.99;68.37;149850.09;4983780;28;20620;-55
2023/09/06 02:20:17;;;;;;;4.50;2.30;;;;;;;14.88;69.32;149823.84;4977042;28;20824;-53
2023/09/06 02:22:44;;;;;;;3.07;2.40;;;;;;;14.88;67.92;149823.84;4983639;28;20227;-52
2023/09/06 02:25:11;;;;;;;3.70;2.40;;;;;;;14.90;71.43;149828.84;5004110;28;20248;-53
2023/09/06 02:27:37;;;;;;;3.50;2.30;;;;;;;14.81;70.21;149805.13;4985892;28;20230;-53
2023/09/06 02:30:06;;;;;;;5.27;2.53;;;;;;;14.76;69.70;149793.91;5000056;28;20354;-56
2023/09/06 02:32:34;;;;;;;4.00;1.90;;;;;;;14.68;69.04;149775.13;5003848;28;20232;-55
2023/09/06 02:35:05;;;;;;;6.93;2.33;;;;;;;14.69;72.31;149777.66;4983860;28;20221;-55
2023/09/06 02:37:31;;;;;;;4.07;2.60;;;;;;;14.59;73.41;149753.91;5003086;28;20219;-55
2023/09/06 02:39:58;;;;;;;3.87;2.87;;;;;;;14.55;73.14;149743.91;4986028;28;20228;-55
2023/09/06 02:42:24;;;;;;;3.30;2.27;;;;;;;14.49;74.45;149727.66;4992876;28;20232;-56
2023/09/06 02:44:51;;;;;;;6.23;2.23;;;;;;;14.37;73.67;149700.19;4983358;28;20227;-55
2023/09/06 02:47:25;;;;;;;5.03;2.03;;;;;;;14.45;73.50;149720.16;5003325;28;20311;-53
2023/09/06 02:49:55;;;;;;;3.73;2.40;;;;;;;14.39;74.55;149703.97;4999971;28;20229;-55
2023/09/06 02:52:29;;;;;;;3.03;2.07;;;;;;;14.36;74.91;149696.47;5005915;28;20224;-54
2023/09/06 02:54:57;;;;;;;4.17;2.07;;;;;;;14.40;78.11;149706.47;4997089;28;20282;-52
2023/09/06 02:57:23;;;;;;;4.50;2.17;;;;;;;14.39;76.38;149703.97;4985459;28;20710;-52
2023/09/06 02:59:51;;;;;;;2.63;2.03;;;;;;;14.34;77.22;149692.69;4999933;28;20233;-52
2023/09/06 03:02:20;;;;;;;4.47;2.50;;;;;;;14.27;75.40;149675.25;5001169;28;20599;-53
2023/09/06 03:04:47;;;;;;;5.57;2.57;;;;;;;14.38;78.53;149701.47;4975544;28;20571;-53
2023/09/06 03:07:15;;;;;;;5.63;2.03;;;;;;;14.30;78.66;149683.97;4978427;28;20302;-52
2023/09/06 03:09:44;;;;;;;3.93;2.10;;;;;;;14.25;77.18;149670.28;4971239;28;20218;-52
2023/09/06 03:12:12;;;;;;;3.80;2.07;;;;;;;14.18;78.31;149654.03;4991688;28;20243;-53
2023/09/06 03:14:44;;;;;;;3.97;2.10;;;;;;;14.14;79.49;149645.31;4982190;28;20233;-52
2023/09/06 03:17:13;;;;;;;3.70;2.33;;;;;;;14.16;82.18;149649.03;4976136;28;20239;-53
2023/09/06 03:19:41;;;;;;;4.47;2.50;;;;;;;14.12;81.96;149640.31;4974010;28;20674;-53
2023/09/06 03:22:10;;;;;;;3.27;2.43;;;;;;;14.12;83.72;149639.03;4973756;28;20280;-53
2023/09/06 03:24:40;;;;;;;3.13;2.30;;;;;;;14.05;81.78;149621.56;4999552;28;20384;-53
2023/09/06 03:27:07;;;;;;;3.47;2.13;;;;;;;14.03;81.88;149619.06;4972587;28;20235;-53
2023/09/06 03:29:37;;;;;;;5.17;2.10;;;;;;;14.08;79.72;149629.03;4978823;28;20224;-52
2023/09/06 03:32:08;;;;;;;3.73;2.40;;;;;;;14.00;82.10;149611.56;5192615;23;20236;-56
2023/09/06 03:34:37;;;;;;;4.97;2.80;;;;;;;14.08;84.14;149630.31;4985950;28;20214;-56
2023/09/06 03:37:08;;;;;;;4.10;2.20;;;;;;;13.93;84.94;149592.88;4982744;28;20243;-54
2023/09/06 03:39:37;;;;;;;4.33;2.00;;;;;;;13.99;84.44;149609.06;4989403;28;20235;-54
2023/09/06 03:42:08;;;;;;;3.97;2.53;;;;;;;14.00;88.36;149610.34;4984732;28;20280;-56
2023/09/06 03:44:35;;;;;;;3.73;2.50;;;;;;;13.88;86.08;149582.88;4989871;28;20274;-57
2023/09/06 03:47:04;;;;;;;3.83;2.20;;;;;;;13.91;85.50;149589.09;4987505;28;20248;-56
2023/09/06 03:49:32;;;;;;;3.70;2.50;;;;;;;13.93;90.29;149592.88;5006121;28;20277;-56
2023/09/06 03:51:59;;;;;;;4.70;2.40;;;;;;;13.84;89.57;149572.91;4972319;28;23013;-56
2023/09/06 03:54:26;;;;;;;4.00;2.67;;;;;;;13.85;90.51;149574.13;4992436;28;20317;-57
2023/09/06 03:56:53;;;;;;;5.13;2.90;;;;;;;13.90;90.33;149586.59;5004601;28;20222;-56
2023/09/06 03:59:22;;;;;;;5.17;2.30;;;;;;;13.85;91.02;149574.13;4978348;28;20293;-54
2023/09/06 04:01:49;;;;;;;3.30;2.40;;;;;;;13.82;90.83;149567.91;4986084;28;20239;-56
2023/09/06 04:04:15;;;;;;;5.63;2.50;;;;;;;13.77;91.21;149555.44;4989053;28;20325;-57
2023/09/06 04:06:43;;;;;;;3.97;2.50;;;;;;;13.84;90.31;149571.63;4986114;28;20884;-55
2023/09/06 04:09:13;;;;;;;6.03;2.87;;;;;;;13.95;94.61;149599.09;5005419;28;20231;-55
2023/09/06 04:11:41;;;;;;;4.23;2.57;;;;;;;13.83;94.20;149569.13;4985706;28;20224;-56
2023/09/06 04:14:08;;;;;;;3.63;2.73;;;;;;;13.77;94.27;149555.44;4980150;28;20279;-57
2023/09/06 04:16:38;;;;;;;3.67;2.43;;;;;;;13.91;96.60;149587.88;4981859;28;20243;-54
2023/09/06 04:19:06;;;;;;;3.70;2.57;;;;;;;13.82;95.63;149566.63;4987131;28;20237;-57
2023/09/06 04:21:37;;;;;;;3.97;2.50;;;;;;;13.76;93.71;149551.69;4976654;28;20237;-54
2023/09/06 04:24:07;;;;;;;4.30;2.80;;;;;;;13.65;93.94;149525.47;4976287;28;20223;-56
2023/09/06 04:26:35;;;;;;;3.57;2.27;;;;;;;13.60;93.21;149514.25;5005233;28;20237;-55
2023/09/06 04:29:03;;;;;;;4.77;2.17;;;;;;;13.53;92.25;149496.78;4986183;28;20242;-54
2023/09/06 04:31:35;;;;;;;2.93;2.20;;;;;;;13.42;91.24;149471.84;4988214;28;20746;-53
2023/09/06 04:34:04;;;;;;;3.63;2.37;;;;;;;13.48;91.19;149484.31;4986257;28;20228;-57
2023/09/06 04:36:36;;;;;;;5.43;2.70;;;;;;;13.43;93.12;149473.06;4978996;28;20225;-56
2023/09/06 04:39:08;;;;;;;3.97;2.40;;;;;;;13.38;93.44;149460.53;4975211;28;20313;-55
2023/09/06 04:41:37;;;;;;;3.70;2.47;;;;;;;13.29;93.72;149439.34;5003943;28;20559;-54
2023/09/06 04:44:06;;;;;;;4.10;2.27;;;;;;;13.26;95.35;149431.84;4985616;28;20239;-57
2023/09/06 04:46:35;;;;;;;3.97;2.50;;;;;;;13.24;95.06;149428.13;4987489;28;20309;-56
2023/09/06 04:49:03;;;;;;;5.37;2.63;;;;;;;13.27;95.51;149435.56;4985343;28;20234;-55
2023/09/06 04:51:35;;;;;;;3.77;2.50;;;;;;;13.22;94.03;149421.88;4977701;28;20570;-56
2023/09/06 04:54:04;;;;;;;3.20;2.50;;;;;;;13.10;94.51;149394.44;4973947;28;20234;-56
2023/09/06 04:56:36;;;;;;;3.20;2.47;;;;;;;13.04;93.04;149379.44;4987761;28;20243;-55
2023/09/06 04:59:03;;;;;;;6.50;2.60;;;;;;;12.94;92.86;149354.50;5003740;28;20238;-53
2023/09/06 05:01:35;;;;;;;3.93;2.20;;;;;;;12.92;96.08;149350.78;5007420;28;20635;-57
2023/09/06 05:04:03;;;;;;;3.63;2.60;;;;;;;12.88;96.24;149340.81;4977338;28;20245;-55
2023/09/06 05:06:36;;;;;;;7.13;2.70;;;;;;;12.87;96.08;149337.03;5004603;28;20217;-55
2023/09/06 05:09:03;;;;;;;5.27;2.67;;;;;;;12.76;96.52;149312.09;4985722;28;20589;-55
2023/09/06 05:11:35;;;;;;;4.57;2.83;;;;;;;12.78;96.38;149317.09;5005591;28;20253;-56
2023/09/06 05:14:02;;;;;;;3.90;2.33;;;;;;;12.72;95.97;149302.13;4975082;28;20325;-55
2023/09/06 05:16:35;;;;;;;5.07;2.87;;;;;;;12.73;98.73;149304.59;5006106;28;20293;-54
2023/09/06 05:19:03;;;;;;;3.10;2.43;;;;;;;12.74;98.72;149305.88;4985534;28;20312;-55
2023/09/06 05:21:38;;;;;;;5.60;2.90;;;;;;;12.78;99.80;149317.09;4988004;28;20229;-56
2023/09/06 05:24:05;;;;;;;4.37;2.60;;;;;;;12.74;100.00;149307.09;4985720;28;20233;-54
2023/09/06 05:26:35;;;;;;;3.70;2.60;;;;;;;12.69;99.70;149295.91;4987894;28;20601;-57
2023/09/06 05:29:04;;;;;;;4.60;2.83;;;;;;;12.70;99.71;149298.41;5001504;28;20317;-55
2023/09/06 05:31:36;;;;;;;5.10;2.50;;;;;;;12.75;99.35;149308.38;5000585;28;20233;-55
2023/09/06 05:34:04;;;;;;;4.20;2.77;;;;;;;12.81;99.61;149324.56;4986356;28;20230;-55
2023/09/06 05:36:35;;;;;;;4.97;2.30;;;;;;;12.94;100.00;149354.50;4978447;28;20229;-54
2023/09/06 05:39:02;;;;;;;5.87;2.67;;;;;;;12.85;100.00;149334.53;4973381;28;20230;-57
2023/09/06 05:41:35;;;;;;;4.70;2.50;;;;;;;12.93;100.00;149352.00;5003650;28;20305;-56
2023/09/06 05:44:03;;;;;;;5.63;2.67;;;;;;;12.95;100.00;149358.28;4984937;28;20697;-53
2023/09/06 05:46:35;;;;;;;3.83;2.40;;;;;;;12.97;100.00;149363.25;5004940;28;20237;-55
2023/09/06 05:49:06;;;;;;;6.57;1.80;;;;;;;13.05;100.00;149380.72;4977021;28;20273;-55
2023/09/06 05:51:39;;;;;;;3.70;2.60;;;;;;;13.08;100.00;149388.22;5001413;28;20937;-57
2023/09/06 05:54:07;;;;;;;4.10;2.03;;;;;;;13.18;99.24;149413.16;4986119;28;20245;-54
2023/09/06 05:56:37;;;;;;;5.23;2.73;;;;;;;13.24;100.00;149426.88;4999063;28;20614;-55
2023/09/06 05:59:05;;;;;;;4.13;2.67;;;;;;;13.25;100.00;149430.59;4985136;28;20240;-55
2023/09/06 06:01:35;;;;;;;3.87;2.40;;;;;;;13.30;99.16;149441.84;5002632;28;20313;-53
2023/09/06 06:04:01;;;;;;;5.37;2.93;;;;;;;13.36;99.13;149456.81;4999992;28;20225;-56
2023/09/06 06:06:34;;;;;;;5.57;2.67;;;;;;;13.40;98.93;149466.78;4978263;28;20233;-53
2023/09/06 06:09:01;;;;;;;7.03;3.27;;;;;;;13.45;99.25;149476.81;4983795;28;20237;-54
2023/09/06 06:11:28;;;;;;;5.70;2.70;;;;;;;13.49;99.37;149486.81;5004191;28;20225;-56
2023/09/06 06:13:54;;;;;;;4.53;2.80;;;;;;;13.50;99.45;149489.31;5002146;28;20247;-56
2023/09/06 06:16:21;;;;;;;6.77;2.77;;;;;;;13.51;99.27;149493.03;5004743;28;20245;-56
2023/09/06 06:18:48;;;;;;;3.90;2.47;;;;;;;13.57;99.76;149506.78;5001307;28;20215;-57
2023/09/06 06:21:15;;;;;;;5.50;2.40;;;;;;;13.58;98.89;149510.50;5004052;28;20593;-54
2023/09/06 06:23:46;;;;;;;7.10;2.70;;;;;;;13.58;99.32;149510.50;5001224;28;20233;-56
2023/09/06 06:26:14;;;;;;;5.33;2.50;;;;;;;13.57;99.60;149508.00;5003666;28;20224;-55
2023/09/06 06:28:40;;;;;;;4.03;2.60;;;;;;;13.60;100.00;149513.00;5001182;28;20643;-57
2023/09/06 06:31:07;;;;;;;3.43;2.40;;;;;;;13.67;100.00;149531.72;5003171;28;20237;-55
2023/09/06 06:33:35;;;;;;;5.90;3.03;;;;;;;13.69;99.70;149536.72;5004342;28;20312;-55
2023/09/06 06:36:02;;;;;;;5.50;2.83;;;;;;;13.75;97.65;149550.44;5001046;28;20238;-57
2023/09/06 06:38:29;;;;;;;4.07;2.70;;;;;;;13.76;97.03;149552.94;4987512;28;20242;-57
2023/09/06 06:40:57;;;;;;;5.60;2.57;;;;;;;13.78;97.43;149556.69;4972335;28;20225;-55
2023/09/06 06:43:23;;;;;;;5.13;2.57;;;;;;;13.84;97.79;149572.91;5003547;28;20238;-57
2023/09/06 06:45:53;;;;;;;6.70;3.03;;;;;;;13.84;98.32;149571.63;4999282;28;20231;-57
2023/09/06 06:48:20;;;;;;;4.50;2.90;;;;;;;13.90;98.35;149586.59;5003781;28;20230;-57
2023/09/06 06:50:47;;;;;;;4.20;2.83;;;;;;;13.96;98.84;149600.38;5000984;28;20681;-57
2023/09/06 06:53:14;;;;;;;4.03;2.93;;;;;;;14.02;98.45;149616.56;5004140;28;20560;-55
2023/09/06 06:55:41;;;;;;;4.27;3.27;;;;;;;14.11;98.78;149637.81;5000913;28;20216;-54
2023/09/06 06:58:09;;;;;;;4.50;2.90;;;;;;;14.21;98.47;149660.28;5003257;28;20686;-58
2023/09/06 07:00:35;;;;;;;5.23;2.73;;;;;;;14.31;98.77;149686.47;5003592;28;20866;-57
2023/09/06 07:03:03;;;;;;;5.07;2.50;;;;;;;14.43;98.81;149715.16;4999217;28;20254;-58
2023/09/06 07:05:29;;;;;;;3.93;3.07;;;;;;;14.57;98.41;149748.91;5001836;28;20223;-58
2023/09/06 07:07:56;;;;;;;6.33;3.07;;;;;;;14.66;98.74;149768.91;4983254;28;20597;-58
2023/09/06 07:10:22;;;;;;;4.43;3.00;;;;;;;14.81;97.38;149805.13;5003141;28;20250;-58
2023/09/06 07:12:49;;;;;;;4.20;3.13;;;;;;;14.90;96.79;149827.63;5000053;28;20235;-58
2023/09/06 07:15:17;;;;;;;7.60;3.70;;;;;;;15.01;97.29;149853.81;5003566;28;20235;-58
2023/09/06 07:17:44;;;;;;;7.20;3.50;;;;;;;15.12;98.07;149880.06;5001959;28;20228;-57
2023/09/06 07:20:12;;;;;;;6.80;3.40;;;;;;;15.18;98.83;149896.28;5006846;28;20270;-57
2023/09/06 07:22:39;;;;;;;4.90;3.40;;;;;;;15.34;99.13;149933.78;5007237;28;20231;-58
2023/09/06 07:25:08;;;;;;;5.93;3.20;;;;;;;15.46;98.62;149963.75;5005061;28;20809;-57
2023/09/06 07:27:34;;;;;;;4.83;3.33;;;;;;;15.72;97.42;150024.97;5007162;28;20236;-57
2023/09/06 07:30:01;;;;;;;4.20;2.97;;;;;;;15.88;96.26;150065.00;4986356;28;20245;-57
2023/09/06 07:32:29;;;;;;;4.03;3.13;;;;;;;16.03;96.08;150101.22;5005450;28;20216;-57
2023/09/06 07:34:55;;;;;;;6.07;3.30;;;;;;;16.19;93.14;150140.00;5004675;28;20235;-58
2023/09/06 07:37:22;;;;;;;4.73;2.90;;;;;;;16.34;92.01;150176.22;5007774;28;20248;-58
2023/09/06 07:39:48;;;;;;;4.90;2.80;;;;;;;16.57;89.56;150231.22;4992495;28;20735;-58
2023/09/06 07:42:15;;;;;;;5.67;2.93;;;;;;;16.73;88.38;150268.75;4990171;28;20224;-58
2023/09/06 07:44:42;;;;;;;6.20;2.80;;;;;;;16.79;86.03;150283.75;5003917;28;20235;-56
2023/09/06 07:47:08;;;;;;;3.90;2.70;;;;;;;16.81;84.28;150288.75;5006119;28;20228;-57
2023/09/06 07:49:36;;;;;;;3.90;2.63;;;;;;;16.90;84.75;150311.25;5007173;28;20615;-57
2023/09/06 07:52:04;;;;;;;3.77;2.67;;;;;;;16.95;84.61;150322.47;5002541;28;20247;-57
2023/09/06 07:54:31;;;;;;;5.43;2.57;;;;;;;17.08;83.24;150353.78;5007346;28;20307;-54
2023/09/06 07:56:58;;;;;;;5.23;2.60;;;;;;;17.14;83.99;150368.78;5004700;28;20704;-56
2023/09/06 07:59:25;;;;;;;4.80;2.70;;;;;;;17.23;82.60;150391.28;5006377;28;20233;-57
2023/09/06 08:01:53;;;;;;;6.33;2.97;;;;;;;17.35;80.36;150418.81;5002527;28;20232;-57
2023/09/06 08:04:20;;;;;;;3.70;2.80;;;;;;;17.48;78.58;150450.09;5006800;28;20233;-56
2023/09/06 08:06:48;;;;;;;6.50;2.63;;;;;;;17.59;76.72;150477.56;5003941;28;20241;-57
2023/09/06 08:09:15;;;;;;;4.43;3.07;;;;;;;17.72;77.54;150508.88;5007548;28;20242;-56
2023/09/06 08:11:42;;;;;;;6.33;3.23;;;;;;;17.80;77.49;150527.63;5003908;28;20226;-57
2023/09/06 08:14:08;;;;;;;4.17;3.10;;;;;;;17.84;76.41;150538.91;5007129;28;20228;-55
2023/09/06 08:16:35;;;;;;;4.87;2.90;;;;;;;17.95;75.96;150563.94;5005341;28;20581;-57
2023/09/06 08:19:03;;;;;;;4.67;2.80;;;;;;;18.05;78.79;150588.97;5003964;28;20232;-54
2023/09/06 08:21:35;;;;;;;4.67;3.53;;;;;;;18.15;80.04;150612.75;5006692;28;20329;-57
2023/09/06 08:24:03;;;;;;;4.73;3.50;;;;;;;18.26;79.32;150640.28;5003958;28;20228;-54
2023/09/06 08:26:36;;;;;;;7.50;3.43;;;;;;;18.38;80.42;150669.06;5004924;28;20249;-56
2023/09/06 08:29:04;;;;;;;7.47;3.77;;;;;;;18.50;81.13;150696.59;5003537;28;20229;-57
2023/09/06 08:31:35;;;;;;;8.23;3.80;;;;;;;18.64;81.25;150731.63;5004605;28;20233;-57
2023/09/06 08:34:02;;;;;;;5.10;3.57;;;;;;;18.70;82.17;150745.38;5003686;28;20233;-55
2023/09/06 08:36:32;;;;;;;7.83;3.87;;;;;;;18.83;82.40;150776.72;5006366;28;20218;-55
2023/09/06 08:38:58;;;;;;;8.07;3.53;;;;;;;18.89;82.42;150791.72;5003861;28;20590;-57
2023/09/06 08:41:27;;;;;;;4.87;3.40;;;;;;;18.94;81.17;150802.97;5005511;28;20289;-57
2023/09/06 08:43:54;;;;;;;5.80;3.57;;;;;;;19.01;80.82;150820.53;5002943;28;20219;-57
2023/09/06 08:46:28;;;;;;;6.10;4.00;;;;;;;19.16;80.81;150858.13;5005055;28;20234;-57
2023/09/06 08:48:56;;;;;;;7.07;3.97;;;;;;;19.17;79.28;150860.63;5003751;28;20235;-57
2023/09/06 08:51:23;;;;;;;4.77;3.60;;;;;;;19.34;77.55;150900.69;5006047;28;20234;-55
2023/09/06 08:53:50;;;;;;;8.77;4.10;;;;;;;19.24;77.84;150876.88;5003063;28;20250;-58
2023/09/06 08:56:17;;;;;;;5.30;3.60;;;;;;;19.38;79.40;150909.44;5005029;28;20690;-55
2023/09/06 08:58:45;;;;;;;11.13;3.80;;;;;;;19.39;77.79;150911.94;5000390;28;20225;-57
2023/09/06 09:01:12;;;;;;;4.23;3.67;;;;;;;19.43;78.08;150921.94;5003985;28;20246;-57
2023/09/06 09:04:01;;;;;;;7.37;4.13;;;;;;;19.49;78.44;150935.75;5004983;28;20606;-58
2023/09/06 09:06:29;;;;;;;5.27;4.00;;;;;;;19.58;79.21;150958.28;5003195;28;20682;-56
2023/09/06 09:08:55;;;;;;;15.43;4.37;;;;;;;19.65;79.04;150974.56;5003129;28;20321;-57
2023/09/06 09:11:22;;;;;;;8.83;4.43;;;;;;;19.79;79.44;151009.63;5004960;28;20690;-55
2023/09/06 09:13:50;;;;;;;9.38;4.32;;;;;;;19.89;76.88;151033.44;5002977;28;21380;-54
2023/09/06 09:16:17;;;;;;;5.40;4.20;;;;;;;19.96;78.18;151049.75;5004166;28;21045;-56
2023/09/06 09:18:47;;;;;;;8.23;4.10;;;;;;;20.06;76.28;151074.81;5002550;28;20222;-57
2023/09/06 09:21:14;;;;;;;8.90;4.07;;;;;;;20.10;74.99;151084.84;5004736;28;20310;-55
2023/09/06 09:23:46;;;;;;;6.30;4.07;;;;;;;20.17;74.69;151102.31;5002838;28;20231;-57
2023/09/06 09:26:13;;;;;;;7.60;3.80;;;;;;;20.19;72.32;151106.09;5005220;28;20317;-57
2023/09/06 09:28:42;;;;;;;5.47;3.90;;;;;;;20.26;72.00;151123.66;5003158;28;20238;-57
2023/09/06 09:31:13;;;;;;;6.80;3.90;;;;;;;20.29;71.82;151131.16;5002028;28;20273;-56
2023/09/06 09:33:40;;;;;;;5.07;3.60;;;;;;;20.38;72.35;151152.44;5003307;28;20298;-57
2023/09/06 09:36:08;;;;;;;30.13;9.10;;;;;;;20.43;71.88;151164.97;5004432;28;20231;-56
2023/09/06 09:38:34;;;;;;;6.30;4.20;;;;;;;20.45;70.46;151170.00;5004317;28;20274;-55
2023/09/06 09:41:06;;;;;;;7.87;3.70;;;;;;;20.55;70.82;151192.53;5002076;28;20253;-57
2023/09/06 09:43:33;;;;;;;6.43;4.03;;;;;;;20.65;70.55;151218.88;5005284;28;20560;-56
2023/09/06 09:45:59;;;;;;;8.13;3.80;;;;;;;20.72;70.41;151235.16;5000789;28;22656;-57
2023/09/06 09:48:30;;;;;;;6.07;3.63;;;;;;;20.78;68.56;151248.97;5005262;28;20231;-57
2023/09/06 09:50:57;;;;;;;7.70;3.77;;;;;;;20.81;68.95;151256.47;5002303;28;20237;-57
2023/09/06 09:53:25;;;;;;;7.03;3.80;;;;;;;20.92;69.45;151284.06;5005098;28;20223;-57
2023/09/06 09:55:54;;;;;;;6.10;4.00;;;;;;;20.97;69.32;151295.38;5002118;28;20258;-57
2023/09/06 09:58:22;;;;;;;7.30;4.17;;;;;;;21.01;69.18;151304.09;5005514;28;20713;-56
2023/09/06 10:00:50;;;;;;;8.17;3.90;;;;;;;21.09;69.21;151325.44;5001279;28;20231;-57
2023/09/06 10:03:16;;;;;;;8.87;4.10;;;;;;;21.21;68.83;151352.97;5005276;28;20635;-57
2023/09/06 10:05:47;;;;;;;8.13;3.97;;;;;;;21.27;67.43;151366.78;5002441;28;20256;-57
2023/09/06 10:08:14;;;;;;;5.50;3.83;;;;;;;21.24;67.52;151360.50;4986688;28;20225;-56
2023/09/06 10:10:42;;;;;;;9.30;4.30;;;;;;;21.26;69.88;151365.50;5002207;28;20223;-57
2023/09/06 10:13:08;;;;;;;7.00;4.10;;;;;;;21.36;69.79;151390.59;4991779;28;20233;-57
2023/09/06 10:15:36;;;;;;;8.37;3.97;;;;;;;21.36;68.28;151390.59;5003044;28;20293;-55
2023/09/06 10:18:05;;;;;;;6.17;4.33;;;;;;;21.53;68.36;151430.69;4999344;28;20241;-57
2023/09/06 10:20:34;;;;;;;6.23;4.20;;;;;;;21.52;68.52;151428.19;5004354;28;20227;-57
2023/09/06 10:23:05;;;;;;;8.37;4.07;;;;;;;21.66;67.41;151462.13;5001489;28;20230;-56
2023/09/06 10:25:32;;;;;;;6.53;4.10;;;;;;;21.65;67.20;151460.84;5004166;28;20230;-58
2023/09/06 10:28:00;;;;;;;6.93;3.87;;;;;;;21.82;65.80;151502.19;5001340;28;20287;-58
2023/09/06 10:30:42;;;;;;;7.43;4.13;;;;;;;21.93;65.45;151527.28;5004622;28;20249;-56
2023/09/06 10:33:09;;;;;;;8.23;3.97;;;;;;;21.97;63.59;151538.59;4980041;28;20686;-57
2023/09/06 10:35:43;;;;;;;10.10;4.70;;;;;;;22.01;64.54;151546.13;5004352;28;20280;-55
2023/09/06 10:38:14;;;;;;;8.00;4.23;;;;;;;22.06;65.60;151558.66;5001669;28;20399;-57
2023/09/06 10:41:07;;;;;;;6.50;3.90;;;;;;;22.18;65.23;151587.47;5001309;28;20306;-54
2023/09/06 10:44:06;;;;;;;6.27;3.60;;;;;;;22.27;65.99;151611.28;5004037;28;20230;-57
2023/09/06 10:46:35;;;;;;;6.70;4.47;;;;;;;22.35;65.52;151628.84;4986723;28;20254;-57
2023/09/06 10:49:19;;;;;;;6.30;3.87;;;;;;;22.29;65.87;151613.78;4998035;28;20237;-58
2023/09/06 10:52:11;;;;;;;9.10;4.10;;;;;;;22.34;65.38;151626.34;5002608;28;20226;-56
2023/09/06 10:54:41;;;;;;;6.70;4.50;;;;;;;22.42;64.98;151646.41;4984528;28;20214;-57
2023/09/06 10:57:10;;;;;;;7.73;4.20;;;;;;;22.74;67.33;151724.22;5004997;28;20229;-57
2023/09/06 10:59:37;;;;;;;9.37;4.20;;;;;;;22.70;65.20;151715.47;5007989;28;20226;-57
2023/09/06 11:02:08;;;;;;;6.83;4.50;;;;;;;22.81;66.04;151741.81;5003419;28;20759;-58
2023/09/06 11:04:36;;;;;;;6.27;3.93;;;;;;;23.04;65.60;151795.72;5007672;28;20222;-57
2023/09/06 11:07:06;;;;;;;6.83;4.03;;;;;;;23.14;65.42;151822.09;5003460;28;20262;-58
2023/09/06 11:09:43;;;;;;;7.13;4.30;;;;;;;23.37;66.29;151876.09;5007633;28;20227;-58
2023/09/06 11:12:12;;;;;;;8.30;5.13;;;;;;;23.63;66.92;151938.84;5004411;28;20297;-57
2023/09/06 11:14:39;;;;;;;6.63;3.97;;;;;;;23.72;65.23;151962.69;4989822;28;20229;-58
2023/09/06 11:17:06;;;;;;;6.50;4.27;;;;;;;23.72;65.93;151961.44;5004451;28;20246;-57
2023/09/06 11:19:35;;;;;;;5.37;4.50;;;;;;;23.83;65.25;151989.06;5007554;28;20672;-56
2023/09/06 11:22:09;;;;;;;5.10;4.60;;;;;;;24.08;62.42;152048.09;5003005;28;20647;-57
2023/09/06 11:24:36;;;;;;;7.33;4.40;;;;;;;24.27;64.11;152095.81;5006959;28;20235;-58
2023/09/06 11:27:21;;;;;;;8.47;4.50;;;;;;;24.23;64.35;152085.75;5005111;28;20240;-57
2023/09/06 11:29:49;;;;;;;6.97;5.00;;;;;;;24.16;63.79;152069.41;5004256;28;20215;-56
2023/09/06 11:32:17;;;;;;;7.83;5.07;;;;;;;24.20;64.30;152078.22;5005275;28;20242;-58
2023/09/06 11:34:44;;;;;;;8.17;4.77;;;;;;;24.32;63.67;152108.34;5004367;28;20223;-57